Clifton, Idaho
Current Conditions -  °F | °C
As of 11:29 AM on Monday 26 Jan 2015 (Local Time) from KLGU Reporting Station
Haze Haze  
Wind Chill: 33°   Ceiling: 200
Heat Index: 33°   Visibility: 4mi
Dew Point: 33°   Wind: 0mph
Humidity: 100%   Direction: NA
Pressure: 30.38"   Gusts: NA
Location:  42.19°N, 112.01°W
Report Text: KLGU 261829Z AUTO 00000KT 4SM BR BKN002 01/01 A3038 RMK AO2 T00060006
Loading
Personal Weather Stations






























Interactive Weather Map New forecast layout! Learn more

10-Day Weather Forecast

Advertisements
Track Severe Weather on mobile